Time;durP1;ratioP1;P1;durP2;ratioP2;P2;SDS_P1;SDS_P2;PMS_P1;PMS_P2;Temp;Humidity;BMP_temperature;BMP_pressure;BME280_temperature;BME280_humidity;BME280_pressure;Samples;Min_cycle;Max_cycle;Signal;HPM_P1;HPM_P2
2022/01/06 00:00:57;;;;;;;17.85;4.32;;;;;;;;;;5142055;27;20055;-80
2022/01/06 00:03:23;;;;;;;22.40;5.22;;;;;;;;;;5127135;27;20051;-80
2022/01/06 00:05:50;;;;;;;20.33;4.03;;;;;;;;;;5148610;27;20506;-80
2022/01/06 00:08:17;;;;;;;16.08;4.22;;;;;;;;;;5151702;27;20178;-81
2022/01/06 00:10:46;;;;;;;22.70;3.55;;;;;;;;;;5151762;27;20097;-83
2022/01/06 00:13:15;;;;;;;22.70;4.22;;;;;;;;;;5150729;27;20082;-80
2022/01/06 00:24:06;;;;;;;18.55;3.78;;;;;;;;;;5106960;27;20107;-80
2022/01/06 00:26:33;;;;;;;22.42;3.70;;;;;;;;;;5131280;27;20079;-81
2022/01/06 00:28:59;;;;;;;17.20;3.42;;;;;;;;;;5147591;27;20101;-80
2022/01/06 00:31:25;;;;;;;18.27;3.30;;;;;;;;;;5134129;27;20071;-80
2022/01/06 00:33:52;;;;;;;29.27;3.88;;;;;;;;;;5152690;27;20059;-84
2022/01/06 00:36:18;;;;;;;20.63;3.28;;;;;;;;;;5151254;27;20144;-83
2022/01/06 00:38:45;;;;;;;14.38;2.90;;;;;;;;;;5143749;27;20047;-81
2022/01/06 00:41:11;;;;;;;15.60;2.72;;;;;;;;;;5151077;27;20117;-80
2022/01/06 00:43:37;;;;;;;10.75;2.45;;;;;;;;;;5134090;27;20099;-81
2022/01/06 00:46:04;;;;;;;12.82;2.45;;;;;;;;;;5140846;27;20051;-80
2022/01/06 00:48:33;;;;;;;13.32;1.75;;;;;;;;;;5140437;27;20051;-80
2022/01/06 00:51:00;;;;;;;19.23;1.98;;;;;;;;;;5137256;27;20043;-80
2022/01/06 00:53:27;;;;;;;14.88;2.08;;;;;;;;;;5150922;27;20801;-80
2022/01/06 00:55:53;;;;;;;14.07;1.70;;;;;;;;;;5129764;27;20059;-80
2022/01/06 00:58:19;;;;;;;15.35;2.35;;;;;;;;;;5131947;27;20087;-83
2022/01/06 01:00:46;;;;;;;13.60;2.05;;;;;;;;;;5144883;27;20453;-80
2022/01/06 01:03:17;;;;;;;10.65;1.83;;;;;;;;;;5147852;27;20058;-81
2022/01/06 01:05:45;;;;;;;15.88;2.25;;;;;;;;;;5150674;27;20058;-84
2022/01/06 01:08:11;;;;;;;16.48;1.85;;;;;;;;;;5145703;27;20087;-80
2022/01/06 01:10:38;;;;;;;13.02;1.83;;;;;;;;;;5129151;27;20506;-81
2022/01/06 01:13:07;;;;;;;12.88;1.90;;;;;;;;;;5148997;27;20532;-81
2022/01/06 01:15:34;;;;;;;15.18;2.33;;;;;;;;;;5150904;27;20050;-80
2022/01/06 01:18:07;;;;;;;13.48;2.00;;;;;;;;;;5151271;27;20055;-80
2022/01/06 01:20:34;;;;;;;15.35;2.00;;;;;;;;;;5141328;27;20074;-80
2022/01/06 01:23:00;;;;;;;16.40;1.88;;;;;;;;;;5149803;27;20512;-80
2022/01/06 01:25:27;;;;;;;19.10;2.08;;;;;;;;;;5135419;27;20497;-82
2022/01/06 01:27:55;;;;;;;11.13;1.90;;;;;;;;;;5152342;27;20085;-83
2022/01/06 01:30:29;;;;;;;16.10;2.15;;;;;;;;;;5129647;27;20047;-81
2022/01/06 01:32:56;;;;;;;13.68;1.65;;;;;;;;;;5150250;27;20051;-81
2022/01/06 01:35:23;;;;;;;14.27;2.67;;;;;;;;;;5150200;27;20046;-80
2022/01/06 01:37:50;;;;;;;20.55;2.75;;;;;;;;;;5150085;27;20108;-80
2022/01/06 01:40:16;;;;;;;10.45;1.45;;;;;;;;;;5137075;27;20082;-80
2022/01/06 01:42:42;;;;;;;9.82;1.27;;;;;;;;;;5148168;27;20051;-81
2022/01/06 01:45:09;;;;;;;14.07;1.77;;;;;;;;;;5155334;27;20051;-80
2022/01/06 01:50:12;;;;;;;13.63;1.83;;;;;;;;;;5150128;27;20096;-80
2022/01/06 01:52:40;;;;;;;19.58;2.08;;;;;;;;;;5144694;27;20050;-80
2022/01/06 01:55:08;;;;;;;14.88;1.42;;;;;;;;;;5155604;27;20517;-80
2022/01/06 01:57:34;;;;;;;13.00;1.77;;;;;;;;;;5133388;27;20107;-83
2022/01/06 02:00:02;;;;;;;11.95;1.23;;;;;;;;;;5133274;27;20140;-81
2022/01/06 02:02:29;;;;;;;12.05;1.60;;;;;;;;;;5149559;27;20051;-82
2022/01/06 02:04:55;;;;;;;13.27;2.22;;;;;;;;;;5130092;27;20087;-80
2022/01/06 02:07:21;;;;;;;9.40;3.13;;;;;;;;;;5139082;27;20619;-80
2022/01/06 02:09:48;;;;;;;18.13;2.47;;;;;;;;;;5139388;27;20078;-80
2022/01/06 02:12:25;;;;;;;13.13;1.88;;;;;;;;;;5131002;27;20050;-80
2022/01/06 02:14:51;;;;;;;14.90;2.20;;;;;;;;;;5148761;27;20539;-84
2022/01/06 02:17:18;;;;;;;14.40;2.03;;;;;;;;;;5149765;27;20175;-84
2022/01/06 02:19:46;;;;;;;16.48;1.98;;;;;;;;;;5148150;27;20047;-81
2022/01/06 02:22:12;;;;;;;14.82;1.80;;;;;;;;;;5148356;27;20136;-84
2022/01/06 02:24:39;;;;;;;15.48;1.60;;;;;;;;;;5149832;27;20073;-80
2022/01/06 02:27:05;;;;;;;13.95;1.75;;;;;;;;;;5138247;27;20055;-80
2022/01/06 02:29:31;;;;;;;8.73;1.48;;;;;;;;;;5141076;27;20152;-80
2022/01/06 02:31:58;;;;;;;16.50;1.55;;;;;;;;;;5148806;27;20140;-81
2022/01/06 02:34:25;;;;;;;10.93;1.80;;;;;;;;;;5148414;27;20051;-80
2022/01/06 02:36:51;;;;;;;14.93;1.80;;;;;;;;;;5129018;27;20169;-80
2022/01/06 02:39:17;;;;;;;11.13;1.40;;;;;;;;;;5148415;27;20563;-80
2022/01/06 02:41:44;;;;;;;14.57;1.88;;;;;;;;;;5148323;27;20083;-80
2022/01/06 02:44:11;;;;;;;17.58;2.30;;;;;;;;;;5133025;27;20083;-79
2022/01/06 02:46:40;;;;;;;14.88;1.75;;;;;;;;;;5148131;27;20548;-80
2022/01/06 02:49:09;;;;;;;12.07;1.73;;;;;;;;;;5140802;27;20121;-81
2022/01/06 02:51:35;;;;;;;12.32;1.52;;;;;;;;;;5148235;27;20062;-80
2022/01/06 02:54:02;;;;;;;13.07;2.00;;;;;;;;;;5147717;27;20078;-80
2022/01/06 02:56:31;;;;;;;10.00;1.48;;;;;;;;;;5148670;27;20082;-80
2022/01/06 02:58:58;;;;;;;10.00;1.17;;;;;;;;;;5149318;27;20501;-80
2022/01/06 03:01:24;;;;;;;13.88;1.75;;;;;;;;;;5150027;27;20051;-80
2022/01/06 03:03:51;;;;;;;13.85;1.55;;;;;;;;;;5132789;27;20553;-80
2022/01/06 03:06:17;;;;;;;14.43;1.85;;;;;;;;;;5159329;27;20108;-80
2022/01/06 03:08:44;;;;;;;10.18;1.60;;;;;;;;;;5141881;27;20090;-80
2022/01/06 03:11:14;;;;;;;10.73;1.85;;;;;;;;;;5130160;27;20091;-84
2022/01/06 03:13:40;;;;;;;17.70;1.60;;;;;;;;;;5141785;27;20074;-82
2022/01/06 03:16:06;;;;;;;11.98;1.35;;;;;;;;;;5140607;27;20141;-82
2022/01/06 03:18:33;;;;;;;9.13;1.27;;;;;;;;;;5152168;27;20055;-80
2022/01/06 03:20:59;;;;;;;13.35;1.75;;;;;;;;;;5133455;27;20133;-80
2022/01/06 03:23:25;;;;;;;14.57;1.77;;;;;;;;;;5133008;27;20133;-80
2022/01/06 03:25:52;;;;;;;16.70;2.00;;;;;;;;;;5133449;27;20051;-80
2022/01/06 03:28:18;;;;;;;8.15;1.58;;;;;;;;;;5130109;27;20549;-80
2022/01/06 03:30:44;;;;;;;13.02;1.10;;;;;;;;;;5132537;27;20071;-81
2022/01/06 03:33:11;;;;;;;12.35;1.42;;;;;;;;;;5150978;27;20143;-83
2022/01/06 03:35:37;;;;;;;10.65;1.73;;;;;;;;;;5151407;27;20124;-81
2022/01/06 03:38:03;;;;;;;15.73;1.73;;;;;;;;;;5152255;27;20051;-80
2022/01/06 03:40:30;;;;;;;11.07;1.40;;;;;;;;;;5158796;27;20055;-80
2022/01/06 03:42:56;;;;;;;15.18;1.83;;;;;;;;;;5141079;27;20082;-80
2022/01/06 03:45:23;;;;;;;10.65;1.13;;;;;;;;;;5126589;27;20197;-80
2022/01/06 03:47:49;;;;;;;13.82;1.83;;;;;;;;;;5151595;27;20078;-80
2022/01/06 03:50:16;;;;;;;9.95;1.70;;;;;;;;;;5138404;27;20126;-79
2022/01/06 03:52:42;;;;;;;14.40;1.55;;;;;;;;;;5142282;27;20110;-82
2022/01/06 03:55:10;;;;;;;11.25;1.65;;;;;;;;;;5136390;27;20055;-79
2022/01/06 03:57:37;;;;;;;14.15;1.52;;;;;;;;;;5150782;27;20914;-80
2022/01/06 04:00:05;;;;;;;8.38;0.90;;;;;;;;;;5140810;27;20448;-80
2022/01/06 04:02:31;;;;;;;9.80;1.38;;;;;;;;;;5133669;27;20051;-82
2022/01/06 04:04:58;;;;;;;14.30;2.20;;;;;;;;;;5154840;27;20142;-79
2022/01/06 04:07:24;;;;;;;9.43;1.30;;;;;;;;;;5151154;27;20136;-80
2022/01/06 04:09:51;;;;;;;6.20;1.38;;;;;;;;;;5148007;27;20082;-83
2022/01/06 04:12:17;;;;;;;6.88;1.20;;;;;;;;;;5134952;27;20162;-81
2022/01/06 04:14:43;;;;;;;13.20;1.80;;;;;;;;;;5150379;27;20071;-83
2022/01/06 04:17:10;;;;;;;8.23;1.27;;;;;;;;;;5153262;27;20101;-81
2022/01/06 04:19:36;;;;;;;12.57;1.85;;;;;;;;;;5133077;27;20078;-81
2022/01/06 04:22:05;;;;;;;10.10;1.40;;;;;;;;;;5150310;27;20051;-79
2022/01/06 04:24:33;;;;;;;10.25;1.30;;;;;;;;;;5149794;27;20055;-80
2022/01/06 04:27:00;;;;;;;8.93;1.17;;;;;;;;;;5155111;27;20074;-83
2022/01/06 04:29:27;;;;;;;8.25;1.23;;;;;;;;;;5137607;27;20480;-81
2022/01/06 04:31:53;;;;;;;8.63;1.40;;;;;;;;;;5128876;27;20136;-80
2022/01/06 04:34:20;;;;;;;11.93;1.60;;;;;;;;;;5143118;27;20144;-80
2022/01/06 04:36:51;;;;;;;8.13;1.40;;;;;;;;;;5135941;27;20086;-83
2022/01/06 04:39:18;;;;;;;11.52;1.50;;;;;;;;;;5135698;27;20058;-80
2022/01/06 04:41:45;;;;;;;11.18;1.67;;;;;;;;;;5138785;27;20514;-81
2022/01/06 04:44:11;;;;;;;10.77;1.23;;;;;;;;;;5149878;27;20047;-81
2022/01/06 04:46:38;;;;;;;9.90;1.58;;;;;;;;;;5150250;27;20429;-80
2022/01/06 04:49:04;;;;;;;8.65;1.10;;;;;;;;;;5150818;27;20052;-79
2022/01/06 04:51:31;;;;;;;10.68;1.33;;;;;;;;;;5150352;27;20059;-80
2022/01/06 04:53:57;;;;;;;13.45;1.65;;;;;;;;;;5155782;27;20140;-80
2022/01/06 04:56:24;;;;;;;7.07;1.20;;;;;;;;;;5131167;27;20075;-79
2022/01/06 04:58:51;;;;;;;11.68;2.17;;;;;;;;;;5148780;27;20078;-79
2022/01/06 05:01:17;;;;;;;12.38;1.80;;;;;;;;;;5150282;27;20721;-81
2022/01/06 05:03:44;;;;;;;6.38;1.00;;;;;;;;;;5138977;27;20055;-80
2022/01/06 05:06:10;;;;;;;16.58;1.70;;;;;;;;;;5131820;27;20051;-80
2022/01/06 05:08:36;;;;;;;10.80;1.60;;;;;;;;;;5149996;27;20051;-80
2022/01/06 05:11:03;;;;;;;11.95;1.67;;;;;;;;;;5135322;27;20055;-80
2022/01/06 05:13:29;;;;;;;12.57;1.90;;;;;;;;;;5133440;27;20117;-80
2022/01/06 05:15:55;;;;;;;12.85;1.30;;;;;;;;;;5150080;27;20097;-80
2022/01/06 05:18:22;;;;;;;10.77;1.35;;;;;;;;;;5131467;27;20789;-79
2022/01/06 05:20:48;;;;;;;13.60;1.88;;;;;;;;;;5140095;27;20092;-83
2022/01/06 05:23:15;;;;;;;11.07;1.50;;;;;;;;;;5133817;27;20590;-81
2022/01/06 05:25:41;;;;;;;10.48;1.42;;;;;;;;;;5149101;27;20510;-79
2022/01/06 05:28:08;;;;;;;15.27;1.92;;;;;;;;;;5125350;27;20051;-80
2022/01/06 05:30:34;;;;;;;10.90;1.63;;;;;;;;;;5151952;27;20050;-80
2022/01/06 05:33:00;;;;;;;16.05;2.50;;;;;;;;;;5152447;27;20133;-80
2022/01/06 05:35:27;;;;;;;13.43;1.45;;;;;;;;;;5142054;27;20051;-80
2022/01/06 05:37:53;;;;;;;12.10;1.38;;;;;;;;;;5146307;27;20101;-82
2022/01/06 05:40:20;;;;;;;9.35;1.40;;;;;;;;;;5130858;27;20083;-81
2022/01/06 05:42:48;;;;;;;13.38;1.83;;;;;;;;;;5151054;27;20082;-81
2022/01/06 05:45:16;;;;;;;13.38;1.48;;;;;;;;;;5150570;27;20055;-80
2022/01/06 05:47:42;;;;;;;9.50;1.63;;;;;;;;;;5140057;27;20047;-81
2022/01/06 05:50:09;;;;;;;17.58;1.70;;;;;;;;;;5150375;27;20498;-80
2022/01/06 05:52:35;;;;;;;11.10;1.80;;;;;;;;;;5132264;27;20150;-80
2022/01/06 05:55:02;;;;;;;14.93;1.60;;;;;;;;;;5145739;27;20051;-80
2022/01/06 05:57:29;;;;;;;9.88;1.80;;;;;;;;;;5140896;27;20583;-81
2022/01/06 05:59:55;;;;;;;13.60;1.60;;;;;;;;;;5143071;27;20082;-80
2022/01/06 06:02:21;;;;;;;13.50;2.03;;;;;;;;;;5140950;27;20218;-81
2022/01/06 06:04:48;;;;;;;8.00;1.92;;;;;;;;;;5159366;27;20083;-81
2022/01/06 06:07:14;;;;;;;9.80;1.40;;;;;;;;;;5147084;27;20070;-81
2022/01/06 06:09:41;;;;;;;7.38;1.70;;;;;;;;;;5139358;27;20089;-83
2022/01/06 06:12:07;;;;;;;8.05;1.42;;;;;;;;;;5132006;27;20095;-81
2022/01/06 06:14:34;;;;;;;12.10;2.25;;;;;;;;;;5150142;27;20104;-83
2022/01/06 06:17:01;;;;;;;13.80;2.53;;;;;;;;;;5142358;27;20074;-82
2022/01/06 06:19:27;;;;;;;16.85;2.70;;;;;;;;;;5150050;27;20131;-82
2022/01/06 06:21:53;;;;;;;11.18;2.15;;;;;;;;;;5150381;27;20048;-84
2022/01/06 06:24:22;;;;;;;16.15;2.10;;;;;;;;;;5141745;27;20195;-83
2022/01/06 06:26:50;;;;;;;15.63;2.10;;;;;;;;;;5135771;27;20089;-82
2022/01/06 06:29:17;;;;;;;10.15;1.63;;;;;;;;;;5136342;27;20055;-83
2022/01/06 06:31:43;;;;;;;10.73;2.45;;;;;;;;;;5157209;27;20116;-82
2022/01/06 06:34:10;;;;;;;15.05;2.15;;;;;;;;;;5138049;27;20509;-82
2022/01/06 06:36:37;;;;;;;12.15;1.77;;;;;;;;;;5135457;27;20946;-82
2022/01/06 06:39:04;;;;;;;17.58;2.35;;;;;;;;;;5155331;27;20104;-82
2022/01/06 06:41:30;;;;;;;16.23;1.65;;;;;;;;;;5143999;27;20058;-82
2022/01/06 06:43:57;;;;;;;12.57;1.90;;;;;;;;;;5145649;27;20968;-83
2022/01/06 06:46:23;;;;;;;16.80;2.58;;;;;;;;;;5145315;27;20051;-83
2022/01/06 06:48:50;;;;;;;9.15;2.10;;;;;;;;;;5134339;27;20097;-82
2022/01/06 06:51:16;;;;;;;11.15;2.42;;;;;;;;;;5152636;27;20505;-82
2022/01/06 06:53:43;;;;;;;14.52;1.52;;;;;;;;;;5143189;27;20047;-82
2022/01/06 06:56:10;;;;;;;21.50;2.58;;;;;;;;;;5136256;27;20047;-83
2022/01/06 06:58:36;;;;;;;16.75;2.08;;;;;;;;;;5128746;27;20083;-82
2022/01/06 07:01:03;;;;;;;17.15;2.20;;;;;;;;;;5142565;27;20105;-82
2022/01/06 07:03:29;;;;;;;14.02;2.45;;;;;;;;;;5151728;27;20705;-82
2022/01/06 07:05:56;;;;;;;13.00;1.95;;;;;;;;;;5140496;27;20541;-83
2022/01/06 07:08:22;;;;;;;13.02;1.98;;;;;;;;;;5155416;27;20097;-83
2022/01/06 07:10:48;;;;;;;15.48;2.35;;;;;;;;;;5143005;27;20086;-83
2022/01/06 07:13:18;;;;;;;16.27;2.33;;;;;;;;;;5152365;27;20055;-83
2022/01/06 07:15:45;;;;;;;15.82;2.10;;;;;;;;;;5142985;27;20109;-83
2022/01/06 07:18:11;;;;;;;10.75;1.70;;;;;;;;;;5155061;27;20051;-82
2022/01/06 07:20:40;;;;;;;14.85;2.47;;;;;;;;;;5162333;27;20055;-82
2022/01/06 07:23:06;;;;;;;11.48;1.70;;;;;;;;;;5148844;27;20626;-82
2022/01/06 07:25:32;;;;;;;9.52;1.55;;;;;;;;;;5149860;27;20141;-83
2022/01/06 07:27:59;;;;;;;12.02;2.05;;;;;;;;;;5135666;27;20087;-83
2022/01/06 07:30:25;;;;;;;12.32;1.80;;;;;;;;;;5165291;27;20104;-82
2022/01/06 07:32:52;;;;;;;15.88;2.08;;;;;;;;;;5148063;27;20047;-82
2022/01/06 07:35:19;;;;;;;11.77;2.42;;;;;;;;;;5133837;27;20051;-82
2022/01/06 07:37:49;;;;;;;14.30;1.77;;;;;;;;;;5152100;27;20545;-83
2022/01/06 07:40:15;;;;;;;7.55;1.80;;;;;;;;;;5144619;27;20840;-83
2022/01/06 07:42:42;;;;;;;11.95;2.35;;;;;;;;;;5147628;27;20060;-82
2022/01/06 07:45:09;;;;;;;9.50;1.50;;;;;;;;;;5145131;27;20509;-83
2022/01/06 07:47:42;;;;;;;14.07;2.10;;;;;;;;;;5152204;27;20499;-82
2022/01/06 07:50:09;;;;;;;9.73;2.13;;;;;;;;;;5152936;27;20559;-83
2022/01/06 07:52:35;;;;;;;13.55;3.92;;;;;;;;;;5152554;27;20101;-82
2022/01/06 07:55:02;;;;;;;13.82;2.92;;;;;;;;;;5152529;27;20649;-82
2022/01/06 07:57:28;;;;;;;15.52;1.98;;;;;;;;;;5152655;27;20525;-83
2022/01/06 07:59:54;;;;;;;15.00;3.03;;;;;;;;;;5129341;27;20759;-83
2022/01/06 08:02:21;;;;;;;13.93;2.85;;;;;;;;;;5151672;27;20086;-83
2022/01/06 08:04:47;;;;;;;14.13;2.67;;;;;;;;;;5148261;27;20146;-82
2022/01/06 08:07:14;;;;;;;10.95;2.90;;;;;;;;;;5154582;27;20081;-82
2022/01/06 08:09:45;;;;;;;16.13;2.40;;;;;;;;;;5155625;27;20054;-83
2022/01/06 08:12:11;;;;;;;11.57;2.30;;;;;;;;;;5152049;27;20051;-83
2022/01/06 08:14:38;;;;;;;8.90;2.47;;;;;;;;;;5133027;27;20097;-81
2022/01/06 08:17:05;;;;;;;14.32;2.22;;;;;;;;;;5143258;27;20067;-79
2022/01/06 08:19:31;;;;;;;9.65;2.13;;;;;;;;;;5122978;27;20051;-78
2022/01/06 08:21:58;;;;;;;7.70;1.45;;;;;;;;;;5147833;27;20150;-78
2022/01/06 08:24:24;;;;;;;10.50;2.80;;;;;;;;;;5149904;27;20086;-78
2022/01/06 08:26:50;;;;;;;7.25;1.88;;;;;;;;;;5129545;27;20204;-77
2022/01/06 08:29:17;;;;;;;8.93;1.88;;;;;;;;;;5151105;27;20497;-80
2022/01/06 08:31:43;;;;;;;11.77;2.33;;;;;;;;;;5155974;27;20062;-80
2022/01/06 08:34:10;;;;;;;9.10;2.20;;;;;;;;;;5134400;27;20062;-80
2022/01/06 08:36:36;;;;;;;9.27;2.13;;;;;;;;;;5134066;27;20077;-83
2022/01/06 08:39:02;;;;;;;8.20;1.83;;;;;;;;;;5135752;27;20051;-80
2022/01/06 08:41:29;;;;;;;7.60;2.30;;;;;;;;;;5133834;27;20078;-80
2022/01/06 08:43:55;;;;;;;11.60;1.90;;;;;;;;;;5154896;27;20075;-80
2022/01/06 08:46:22;;;;;;;9.77;1.90;;;;;;;;;;5151077;27;20166;-80
2022/01/06 08:48:48;;;;;;;19.30;3.85;;;;;;;;;;5153819;27;20051;-81
2022/01/06 08:51:14;;;;;;;8.13;2.25;;;;;;;;;;5153482;27;20047;-80
2022/01/06 08:53:41;;;;;;;16.00;2.50;;;;;;;;;;5130796;27;20090;-82
2022/01/06 08:56:07;;;;;;;9.63;2.17;;;;;;;;;;5153228;27;20081;-81
2022/01/06 08:58:34;;;;;;;16.73;2.78;;;;;;;;;;5151477;27;20059;-81
2022/01/06 09:01:00;;;;;;;12.75;3.53;;;;;;;;;;5152832;27;20128;-80
2022/01/06 09:03:27;;;;;;;13.15;3.10;;;;;;;;;;5152835;27;20951;-80
2022/01/06 09:05:53;;;;;;;19.48;3.80;;;;;;;;;;5151564;27;20079;-80
2022/01/06 09:08:19;;;;;;;10.75;3.42;;;;;;;;;;5134350;27;20055;-80
2022/01/06 09:10:46;;;;;;;21.58;4.18;;;;;;;;;;5133319;27;20044;-81
2022/01/06 09:13:25;;;;;;;18.70;3.50;;;;;;;;;;5151229;27;20134;-80
2022/01/06 09:15:51;;;;;;;11.80;3.00;;;;;;;;;;5127420;27;20968;-80
2022/01/06 09:18:18;;;;;;;8.93;3.17;;;;;;;;;;5135995;27;20047;-81
2022/01/06 09:20:44;;;;;;;16.65;4.03;;;;;;;;;;5133298;27;20489;-83
2022/01/06 09:23:11;;;;;;;14.00;3.88;;;;;;;;;;5137455;27;20059;-81
2022/01/06 09:25:37;;;;;;;16.58;3.70;;;;;;;;;;5147981;27;20117;-81
2022/01/06 09:28:04;;;;;;;12.45;3.47;;;;;;;;;;5153340;27;20051;-80
2022/01/06 09:30:30;;;;;;;16.88;4.10;;;;;;;;;;5154545;27;20050;-81
2022/01/06 09:32:57;;;;;;;15.45;4.00;;;;;;;;;;5133908;27;20489;-80
2022/01/06 09:35:23;;;;;;;17.50;4.20;;;;;;;;;;5148225;27;20073;-81
2022/01/06 09:37:49;;;;;;;14.25;4.15;;;;;;;;;;5151889;27;20075;-80
2022/01/06 09:40:16;;;;;;;8.63;3.47;;;;;;;;;;5153262;27;20410;-80
2022/01/06 09:42:43;;;;;;;19.77;4.05;;;;;;;;;;5133702;27;20108;-80
2022/01/06 09:45:10;;;;;;;13.43;3.70;;;;;;;;;;5152220;27;20047;-80
2022/01/06 09:47:36;;;;;;;15.95;3.63;;;;;;;;;;5146034;27;20054;-80
2022/01/06 09:50:06;;;;;;;9.80;3.33;;;;;;;;;;5150304;27;20508;-80
2022/01/06 09:52:34;;;;;;;15.25;3.45;;;;;;;;;;5141279;27;20051;-80
2022/01/06 09:55:03;;;;;;;9.88;3.40;;;;;;;;;;5152101;27;20501;-80
2022/01/06 09:57:30;;;;;;;10.98;2.53;;;;;;;;;;5151146;27;21732;-82
2022/01/06 09:59:56;;;;;;;12.18;3.35;;;;;;;;;;5131051;27;20575;-82
2022/01/06 10:02:31;;;;;;;11.20;3.05;;;;;;;;;;5144680;27;20054;-80
2022/01/06 10:04:59;;;;;;;15.48;3.58;;;;;;;;;;5152291;27;20436;-80
2022/01/06 10:07:25;;;;;;;15.68;3.20;;;;;;;;;;5111311;27;20059;-80
2022/01/06 10:09:52;;;;;;;10.52;3.17;;;;;;;;;;5128446;27;20128;-76
2022/01/06 10:12:18;;;;;;;10.60;2.50;;;;;;;;;;5142305;27;20139;-79
2022/01/06 10:14:46;;;;;;;12.98;2.90;;;;;;;;;;5134488;27;20535;-77
2022/01/06 10:17:14;;;;;;;10.65;2.75;;;;;;;;;;5126603;27;20563;-77
2022/01/06 10:19:42;;;;;;;16.92;3.17;;;;;;;;;;5149113;27;20052;-78
2022/01/06 10:22:18;;;;;;;10.82;2.45;;;;;;;;;;5147056;27;20052;-77
2022/01/06 10:24:46;;;;;;;9.73;2.25;;;;;;;;;;5158250;27;20563;-78
2022/01/06 10:27:14;;;;;;;9.32;2.10;;;;;;;;;;5145247;27;20136;-78
2022/01/06 10:29:45;;;;;;;12.00;2.50;;;;;;;;;;5129040;27;20051;-77
2022/01/06 10:32:15;;;;;;;13.50;2.15;;;;;;;;;;5129427;27;20051;-79
2022/01/06 10:34:45;;;;;;;13.50;2.33;;;;;;;;;;5136593;27;20059;-82
2022/01/06 10:37:20;;;;;;;12.32;2.05;;;;;;;;;;5148356;27;20054;-78
2022/01/06 10:39:48;;;;;;;15.85;1.90;;;;;;;;;;5129517;27;20047;-77
2022/01/06 10:42:15;;;;;;;9.45;1.88;;;;;;;;;;5129563;27;20069;-79
2022/01/06 10:44:53;;;;;;;7.25;1.60;;;;;;;;;;5148146;27;20568;-77
2022/01/06 10:47:34;;;;;;;9.43;1.88;;;;;;;;;;5147720;27;20055;-77
2022/01/06 10:50:26;;;;;;;8.90;1.97;;;;;;;;;;5143365;27;20079;-76
2022/01/06 10:52:53;;;;;;;12.35;2.25;;;;;;;;;;5123457;27;20323;-84
2022/01/06 10:55:27;;;;;;;8.13;2.00;;;;;;;;;;5152261;27;20087;-79
2022/01/06 10:58:01;;;;;;;18.02;2.38;;;;;;;;;;5135632;27;20050;-82
2022/01/06 11:00:29;;;;;;;10.38;2.53;;;;;;;;;;5147811;27;20047;-78
2022/01/06 11:03:05;;;;;;;11.07;2.42;;;;;;;;;;5145538;27;20051;-82
2022/01/06 11:05:36;;;;;;;7.72;1.95;;;;;;;;;;5154475;27;20446;-78
2022/01/06 11:08:03;;;;;;;10.30;2.15;;;;;;;;;;5142076;27;20089;-79
2022/01/06 11:10:30;;;;;;;12.32;2.53;;;;;;;;;;5145722;27;20079;-83
2022/01/06 11:12:57;;;;;;;12.15;2.60;;;;;;;;;;5141507;27;20164;-78
2022/01/06 11:15:24;;;;;;;9.75;2.28;;;;;;;;;;5147752;27;20090;-77
2022/01/06 11:17:51;;;;;;;15.98;3.00;;;;;;;;;;5147234;27;20130;-82
2022/01/06 11:20:24;;;;;;;13.27;2.55;;;;;;;;;;5147039;27;20491;-78
2022/01/06 11:22:53;;;;;;;15.23;3.42;;;;;;;;;;5130046;27;20112;-79
2022/01/06 11:25:36;;;;;;;12.00;2.42;;;;;;;;;;5130318;27;20241;-76
2022/01/06 11:28:07;;;;;;;9.75;3.17;;;;;;;;;;5147310;27;20104;-79
2022/01/06 11:30:44;;;;;;;14.73;3.70;;;;;;;;;;5150631;27;20086;-84
2022/01/06 11:33:11;;;;;;;11.73;2.88;;;;;;;;;;5130604;27;20051;-81
2022/01/06 11:35:51;;;;;;;15.48;3.55;;;;;;;;;;5112279;27;20059;-79
2022/01/06 11:38:20;;;;;;;12.98;3.50;;;;;;;;;;5128179;27;20501;-80
2022/01/06 11:40:47;;;;;;;10.25;2.80;;;;;;;;;;5143131;27;20109;-79
2022/01/06 11:43:14;;;;;;;9.02;3.63;;;;;;;;;;5130378;27;20545;-81
2022/01/06 11:45:40;;;;;;;17.73;3.33;;;;;;;;;;5130796;27;20906;-79
2022/01/06 11:48:09;;;;;;;13.27;3.53;;;;;;;;;;5131207;27;20623;-79
2022/01/06 11:50:42;;;;;;;14.32;3.47;;;;;;;;;;5130654;27;20139;-79
2022/01/06 11:53:09;;;;;;;11.02;2.63;;;;;;;;;;5147701;27;20093;-79
2022/01/06 11:55:43;;;;;;;17.42;3.25;;;;;;;;;;5133205;27;20101;-79
2022/01/06 11:58:19;;;;;;;14.93;2.60;;;;;;;;;;5151662;27;20051;-79
2022/01/06 12:00:59;;;;;;;8.32;2.30;;;;;;;;;;5161913;27;20521;-78
2022/01/06 12:03:33;;;;;;;12.70;2.78;;;;;;;;;;5131940;27;20055;-82
2022/01/06 12:05:59;;;;;;;10.27;2.95;;;;;;;;;;5151090;27;20047;-79
2022/01/06 12:08:35;;;;;;;9.55;2.38;;;;;;;;;;5141269;27;20106;-79
2022/01/06 12:11:02;;;;;;;22.70;10.10;;;;;;;;;;5133183;27;20113;-81
2022/01/06 12:13:28;;;;;;;48.00;18.55;;;;;;;;;;5151289;27;20118;-80
2022/01/06 12:15:58;;;;;;;67.07;28.17;;;;;;;;;;5138542;27;20047;-81
2022/01/06 12:18:29;;;;;;;63.45;27.27;;;;;;;;;;5133274;27;20062;-86
2022/01/06 12:20:57;;;;;;;19.10;8.40;;;;;;;;;;5151263;27;20556;-80
2022/01/06 12:23:24;;;;;;;20.98;10.55;;;;;;;;;;5150894;27;20500;-80
2022/01/06 12:25:57;;;;;;;19.80;6.85;;;;;;;;;;5151191;27;20086;-81
2022/01/06 12:28:24;;;;;;;8.55;3.17;;;;;;;;;;5150636;27;20537;-84
2022/01/06 12:30:55;;;;;;;13.52;4.15;;;;;;;;;;5150265;27;20051;-81
2022/01/06 12:33:22;;;;;;;19.05;6.95;;;;;;;;;;5148669;27;20143;-81
2022/01/06 12:35:50;;;;;;;12.77;3.08;;;;;;;;;;5158555;27;20078;-85
2022/01/06 12:38:25;;;;;;;14.43;3.47;;;;;;;;;;5129090;27;20076;-82
2022/01/06 12:40:52;;;;;;;10.93;2.40;;;;;;;;;;5132236;27;20070;-81
2022/01/06 12:43:38;;;;;;;14.10;3.22;;;;;;;;;;5131908;27;20142;-79
2022/01/06 12:46:06;;;;;;;11.35;2.90;;;;;;;;;;5153726;27;20043;-80
2022/01/06 12:48:34;;;;;;;9.80;2.38;;;;;;;;;;5167083;27;20576;-78
2022/01/06 12:51:01;;;;;;;13.93;2.38;;;;;;;;;;5131467;27;20059;-77
2022/01/06 12:53:33;;;;;;;14.93;2.10;;;;;;;;;;5127279;27;20056;-80
2022/01/06 12:55:59;;;;;;;12.73;1.70;;;;;;;;;;5134223;27;20108;-78
2022/01/06 12:58:27;;;;;;;7.95;1.80;;;;;;;;;;5150640;27;20096;-84
2022/01/06 13:00:57;;;;;;;14.15;2.25;;;;;;;;;;5149942;27;20568;-81
2022/01/06 13:03:24;;;;;;;;;;;;;;;;;;5131792;27;20058;-82
2022/01/06 13:05:52;;;;;;;8.57;1.42;;;;;;;;;;5150314;27;45085;-81
2022/01/06 13:08:18;;;;;;;14.23;1.80;;;;;;;;;;5162557;27;20043;-80
2022/01/06 13:10:45;;;;;;;8.82;1.70;;;;;;;;;;5152363;27;20054;-81
2022/01/06 13:13:12;;;;;;;11.13;1.80;;;;;;;;;;5125146;27;20088;-80
2022/01/06 13:15:38;;;;;;;9.27;1.35;;;;;;;;;;5132941;27;20047;-80
2022/01/06 13:18:04;;;;;;;9.02;1.77;;;;;;;;;;5140120;27;20087;-86
2022/01/06 13:20:36;;;;;;;8.18;1.60;;;;;;;;;;5125825;27;20592;-82
2022/01/06 13:26:03;;;;;;;5.40;1.00;;;;;;;;;;5149236;27;20575;-81
2022/01/06 13:28:29;;;;;;;9.32;1.40;;;;;;;;;;5141997;27;20090;-81
2022/01/06 13:30:55;;;;;;;6.95;1.85;;;;;;;;;;5129669;27;20051;-79
2022/01/06 13:33:23;;;;;;;6.82;1.17;;;;;;;;;;5126756;27;20570;-82
2022/01/06 13:35:57;;;;;;;9.50;1.48;;;;;;;;;;5148299;27;20083;-83
2022/01/06 13:38:24;;;;;;;8.63;1.40;;;;;;;;;;5146796;27;20078;-79
2022/01/06 13:40:52;;;;;;;13.10;2.00;;;;;;;;;;5145457;27;20580;-79
2022/01/06 13:43:19;;;;;;;11.50;1.45;;;;;;;;;;5149513;27;20208;-81
2022/01/06 13:45:49;;;;;;;14.68;2.30;;;;;;;;;;5145363;27;20047;-83
2022/01/06 13:48:35;;;;;;;10.50;1.58;;;;;;;;;;5149162;27;20058;-80
2022/01/06 13:51:13;;;;;;;12.10;1.85;;;;;;;;;;5128384;27;20134;-81
2022/01/06 13:53:46;;;;;;;11.68;2.17;;;;;;;;;;5134713;27;20082;-79
2022/01/06 13:56:19;;;;;;;10.40;1.75;;;;;;;;;;5149835;27;20538;-82
2022/01/06 13:58:47;;;;;;;10.52;2.53;;;;;;;;;;5131154;27;20062;-80
2022/01/06 14:01:15;;;;;;;6.28;1.33;;;;;;;;;;5149759;27;20517;-80
2022/01/06 14:03:42;;;;;;;7.18;1.67;;;;;;;;;;5130073;27;20055;-80
2022/01/06 14:06:10;;;;;;;9.57;1.88;;;;;;;;;;5130458;27;20085;-80
2022/01/06 14:08:38;;;;;;;7.05;1.58;;;;;;;;;;5149544;27;20203;-81
2022/01/06 14:11:08;;;;;;;8.95;1.65;;;;;;;;;;5131828;27;20102;-83
2022/01/06 14:13:35;;;;;;;11.02;1.83;;;;;;;;;;5146223;27;20075;-79
2022/01/06 14:16:01;;;;;;;9.13;1.70;;;;;;;;;;5149065;27;20128;-84
2022/01/06 14:18:28;;;;;;;6.40;1.40;;;;;;;;;;5129758;27;20524;-81
2022/01/06 14:20:55;;;;;;;12.88;1.67;;;;;;;;;;5129497;27;20055;-79
2022/01/06 14:23:23;;;;;;;12.38;2.15;;;;;;;;;;5130411;27;20148;-79
2022/01/06 14:25:50;;;;;;;7.53;1.45;;;;;;;;;;5126315;27;20082;-82
2022/01/06 14:28:16;;;;;;;10.68;1.50;;;;;;;;;;5135034;27;20635;-81
2022/01/06 14:30:43;;;;;;;8.30;1.67;;;;;;;;;;5146321;27;20599;-81
2022/01/06 14:33:11;;;;;;;7.32;1.60;;;;;;;;;;5129895;27;20119;-79
2022/01/06 14:35:37;;;;;;;17.83;1.90;;;;;;;;;;5124702;27;20120;-79
2022/01/06 14:38:24;;;;;;;12.18;2.05;;;;;;;;;;5133398;27;20505;-79
2022/01/06 14:40:51;;;;;;;11.38;1.73;;;;;;;;;;5130148;27;20063;-84
2022/01/06 14:43:18;;;;;;;12.25;2.13;;;;;;;;;;5140137;27;20976;-80
2022/01/06 14:45:44;;;;;;;12.48;2.10;;;;;;;;;;5147653;27;20150;-79
2022/01/06 14:48:11;;;;;;;12.23;2.28;;;;;;;;;;5143569;27;20053;-85
2022/01/06 14:50:38;;;;;;;8.95;1.88;;;;;;;;;;5151399;27;20537;-80